sensor_id;sensor_type;location;lat;lon;timestamp;P1;durP1;ratioP1;P2;durP2;ratioP2
71296;SDS011;59082;50.658;4.608;2022-07-06T00:01:37;6.27;;;2.07;;
71296;SDS011;59082;50.658;4.608;2022-07-06T00:04:03;5.75;;;1.80;;
71296;SDS011;59082;50.658;4.608;2022-07-06T00:06:30;5.55;;;2.67;;
71296;SDS011;59082;50.658;4.608;2022-07-06T00:08:55;3.50;;;1.73;;
71296;SDS011;59082;50.658;4.608;2022-07-06T00:11:21;4.78;;;2.03;;
71296;SDS011;59082;50.658;4.608;2022-07-06T00:13:47;3.47;;;2.10;;
71296;SDS011;59082;50.658;4.608;2022-07-06T00:16:12;4.32;;;2.10;;
71296;SDS011;59082;50.658;4.608;2022-07-06T00:18:38;2.40;;;1.90;;
71296;SDS011;59082;50.658;4.608;2022-07-06T00:21:04;3.65;;;2.22;;
71296;SDS011;59082;50.658;4.608;2022-07-06T00:23:29;5.77;;;2.10;;
71296;SDS011;59082;50.658;4.608;2022-07-06T00:25:55;4.43;;;1.80;;
71296;SDS011;59082;50.658;4.608;2022-07-06T00:28:21;4.30;;;2.73;;
71296;SDS011;59082;50.658;4.608;2022-07-06T00:30:47;4.53;;;2.30;;
71296;SDS011;59082;50.658;4.608;2022-07-06T00:33:14;4.47;;;2.85;;
71296;SDS011;59082;50.658;4.608;2022-07-06T00:35:39;4.33;;;2.20;;
71296;SDS011;59082;50.658;4.608;2022-07-06T00:38:05;4.07;;;2.53;;
71296;SDS011;59082;50.658;4.608;2022-07-06T00:40:30;2.53;;;2.08;;
71296;SDS011;59082;50.658;4.608;2022-07-06T00:42:56;6.03;;;2.37;;
71296;SDS011;59082;50.658;4.608;2022-07-06T00:45:22;4.60;;;2.70;;
71296;SDS011;59082;50.658;4.608;2022-07-06T00:47:47;5.67;;;2.33;;
71296;SDS011;59082;50.658;4.608;2022-07-06T00:50:14;3.30;;;2.88;;
71296;SDS011;59082;50.658;4.608;2022-07-06T00:52:43;6.13;;;2.70;;
71296;SDS011;59082;50.658;4.608;2022-07-06T00:55:12;7.80;;;3.67;;
71296;SDS011;59082;50.658;4.608;2022-07-06T00:57:39;7.73;;;2.53;;
71296;SDS011;59082;50.658;4.608;2022-07-06T01:00:07;3.55;;;2.22;;
71296;SDS011;59082;50.658;4.608;2022-07-06T01:02:34;4.53;;;2.30;;
71296;SDS011;59082;50.658;4.608;2022-07-06T01:05:05;3.95;;;2.22;;
71296;SDS011;59082;50.658;4.608;2022-07-06T01:07:32;5.72;;;2.63;;
71296;SDS011;59082;50.658;4.608;2022-07-06T01:09:58;3.77;;;2.10;;
71296;SDS011;59082;50.658;4.608;2022-07-06T01:12:23;7.65;;;3.00;;
71296;SDS011;59082;50.658;4.608;2022-07-06T01:14:49;3.20;;;2.30;;
71296;SDS011;59082;50.658;4.608;2022-07-06T01:17:16;3.63;;;2.08;;
71296;SDS011;59082;50.658;4.608;2022-07-06T01:19:42;5.55;;;2.42;;
71296;SDS011;59082;50.658;4.608;2022-07-06T01:22:09;4.43;;;2.60;;
71296;SDS011;59082;50.658;4.608;2022-07-06T01:24:35;3.30;;;2.40;;
71296;SDS011;59082;50.658;4.608;2022-07-06T01:27:01;3.13;;;2.53;;
71296;SDS011;59082;50.658;4.608;2022-07-06T01:29:28;4.28;;;2.83;;
71296;SDS011;59082;50.658;4.608;2022-07-06T01:31:54;4.82;;;2.08;;
71296;SDS011;59082;50.658;4.608;2022-07-06T01:34:21;4.32;;;2.70;;
71296;SDS011;59082;50.658;4.608;2022-07-06T01:36:46;3.27;;;2.73;;
71296;SDS011;59082;50.658;4.608;2022-07-06T01:39:12;6.90;;;3.38;;
71296;SDS011;59082;50.658;4.608;2022-07-06T01:41:38;4.33;;;2.67;;
71296;SDS011;59082;50.658;4.608;2022-07-06T01:44:04;4.20;;;2.90;;
71296;SDS011;59082;50.658;4.608;2022-07-06T01:46:30;5.95;;;2.13;;
71296;SDS011;59082;50.658;4.608;2022-07-06T01:48:56;4.82;;;2.58;;
71296;SDS011;59082;50.658;4.608;2022-07-06T01:51:22;4.90;;;2.50;;
71296;SDS011;59082;50.658;4.608;2022-07-06T01:53:48;3.03;;;2.38;;
71296;SDS011;59082;50.658;4.608;2022-07-06T01:56:14;3.88;;;2.47;;
71296;SDS011;59082;50.658;4.608;2022-07-06T01:58:39;3.23;;;1.77;;
71296;SDS011;59082;50.658;4.608;2022-07-06T02:01:09;4.45;;;2.50;;
71296;SDS011;59082;50.658;4.608;2022-07-06T02:03:39;5.75;;;2.30;;
71296;SDS011;59082;50.658;4.608;2022-07-06T02:06:05;6.32;;;2.67;;
71296;SDS011;59082;50.658;4.608;2022-07-06T02:08:32;4.15;;;2.30;;
71296;SDS011;59082;50.658;4.608;2022-07-06T02:10:59;3.73;;;2.37;;
71296;SDS011;59082;50.658;4.608;2022-07-06T02:13:25;5.13;;;3.15;;
71296;SDS011;59082;50.658;4.608;2022-07-06T02:15:50;5.90;;;2.63;;
71296;SDS011;59082;50.658;4.608;2022-07-06T02:18:16;4.60;;;3.17;;
71296;SDS011;59082;50.658;4.608;2022-07-06T02:20:42;6.17;;;3.13;;
71296;SDS011;59082;50.658;4.608;2022-07-06T02:23:08;4.18;;;2.97;;
71296;SDS011;59082;50.658;4.608;2022-07-06T02:25:33;5.93;;;3.20;;
71296;SDS011;59082;50.658;4.608;2022-07-06T02:27:59;8.70;;;3.00;;
71296;SDS011;59082;50.658;4.608;2022-07-06T02:30:26;6.30;;;3.00;;
71296;SDS011;59082;50.658;4.608;2022-07-06T02:32:51;6.43;;;3.20;;
71296;SDS011;59082;50.658;4.608;2022-07-06T02:35:17;3.63;;;3.07;;
71296;SDS011;59082;50.658;4.608;2022-07-06T02:37:42;4.38;;;2.75;;
71296;SDS011;59082;50.658;4.608;2022-07-06T02:40:08;4.73;;;3.40;;
71296;SDS011;59082;50.658;4.608;2022-07-06T02:42:34;5.95;;;2.97;;
71296;SDS011;59082;50.658;4.608;2022-07-06T02:44:59;7.87;;;3.93;;
71296;SDS011;59082;50.658;4.608;2022-07-06T02:47:25;5.65;;;3.15;;
71296;SDS011;59082;50.658;4.608;2022-07-06T02:49:53;7.35;;;2.92;;
71296;SDS011;59082;50.658;4.608;2022-07-06T02:52:19;6.23;;;3.90;;
71296;SDS011;59082;50.658;4.608;2022-07-06T02:54:45;5.30;;;2.92;;
71296;SDS011;59082;50.658;4.608;2022-07-06T02:57:11;6.77;;;2.53;;
71296;SDS011;59082;50.658;4.608;2022-07-06T02:59:37;6.70;;;3.22;;
71296;SDS011;59082;50.658;4.608;2022-07-06T03:02:04;3.42;;;2.60;;
71296;SDS011;59082;50.658;4.608;2022-07-06T03:04:29;7.00;;;3.63;;
71296;SDS011;59082;50.658;4.608;2022-07-06T03:06:56;5.97;;;2.93;;
71296;SDS011;59082;50.658;4.608;2022-07-06T03:09:21;6.78;;;3.72;;
71296;SDS011;59082;50.658;4.608;2022-07-06T03:11:47;6.23;;;3.97;;
71296;SDS011;59082;50.658;4.608;2022-07-06T03:14:12;5.60;;;3.10;;
71296;SDS011;59082;50.658;4.608;2022-07-06T03:16:38;5.95;;;3.67;;
71296;SDS011;59082;50.658;4.608;2022-07-06T03:19:04;5.80;;;3.83;;
71296;SDS011;59082;50.658;4.608;2022-07-06T03:21:29;6.07;;;3.72;;
71296;SDS011;59082;50.658;4.608;2022-07-06T03:23:55;5.77;;;2.90;;
71296;SDS011;59082;50.658;4.608;2022-07-06T03:26:20;5.77;;;3.13;;
71296;SDS011;59082;50.658;4.608;2022-07-06T03:28:46;6.10;;;3.13;;
71296;SDS011;59082;50.658;4.608;2022-07-06T03:31:11;3.73;;;2.73;;
71296;SDS011;59082;50.658;4.608;2022-07-06T03:33:37;5.97;;;4.37;;
71296;SDS011;59082;50.658;4.608;2022-07-06T03:36:03;4.78;;;2.67;;
71296;SDS011;59082;50.658;4.608;2022-07-06T03:38:30;6.55;;;3.78;;
71296;SDS011;59082;50.658;4.608;2022-07-06T03:40:55;7.03;;;3.20;;
71296;SDS011;59082;50.658;4.608;2022-07-06T03:43:21;5.37;;;3.40;;
71296;SDS011;59082;50.658;4.608;2022-07-06T03:45:46;4.72;;;2.90;;
71296;SDS011;59082;50.658;4.608;2022-07-06T03:48:12;10.67;;;4.67;;
71296;SDS011;59082;50.658;4.608;2022-07-06T03:50:37;6.27;;;3.70;;
71296;SDS011;59082;50.658;4.608;2022-07-06T03:53:03;5.80;;;4.10;;
71296;SDS011;59082;50.658;4.608;2022-07-06T03:55:28;4.60;;;3.83;;
71296;SDS011;59082;50.658;4.608;2022-07-06T03:57:54;7.72;;;3.97;;
71296;SDS011;59082;50.658;4.608;2022-07-06T04:00:19;4.90;;;4.30;;
71296;SDS011;59082;50.658;4.608;2022-07-06T04:02:45;5.90;;;3.67;;
71296;SDS011;59082;50.658;4.608;2022-07-06T04:05:10;8.25;;;4.40;;
71296;SDS011;59082;50.658;4.608;2022-07-06T04:07:36;7.00;;;3.63;;
71296;SDS011;59082;50.658;4.608;2022-07-06T04:10:02;6.63;;;3.93;;
71296;SDS011;59082;50.658;4.608;2022-07-06T04:12:27;5.78;;;4.47;;
71296;SDS011;59082;50.658;4.608;2022-07-06T04:14:55;8.30;;;3.90;;
71296;SDS011;59082;50.658;4.608;2022-07-06T04:17:22;5.97;;;3.60;;
71296;SDS011;59082;50.658;4.608;2022-07-06T04:20:07;6.15;;;3.72;;
71296;SDS011;59082;50.658;4.608;2022-07-06T04:22:36;8.13;;;3.40;;
71296;SDS011;59082;50.658;4.608;2022-07-06T04:25:03;6.05;;;3.83;;
71296;SDS011;59082;50.658;4.608;2022-07-06T04:27:29;8.13;;;4.40;;
71296;SDS011;59082;50.658;4.608;2022-07-06T04:29:54;7.03;;;3.60;;
71296;SDS011;59082;50.658;4.608;2022-07-06T04:32:20;7.50;;;3.90;;
71296;SDS011;59082;50.658;4.608;2022-07-06T04:34:45;9.97;;;4.77;;
71296;SDS011;59082;50.658;4.608;2022-07-06T04:37:11;6.85;;;3.65;;
71296;SDS011;59082;50.658;4.608;2022-07-06T04:39:36;7.70;;;4.07;;
71296;SDS011;59082;50.658;4.608;2022-07-06T04:42:02;8.00;;;3.97;;
71296;SDS011;59082;50.658;4.608;2022-07-06T04:44:28;5.25;;;3.80;;
71296;SDS011;59082;50.658;4.608;2022-07-06T04:46:53;7.00;;;4.20;;
71296;SDS011;59082;50.658;4.608;2022-07-06T04:49:19;7.15;;;3.80;;
71296;SDS011;59082;50.658;4.608;2022-07-06T04:51:45;5.83;;;3.73;;
71296;SDS011;59082;50.658;4.608;2022-07-06T04:54:10;6.53;;;4.07;;
71296;SDS011;59082;50.658;4.608;2022-07-06T04:56:36;8.13;;;4.20;;
71296;SDS011;59082;50.658;4.608;2022-07-06T04:59:01;7.63;;;4.20;;
71296;SDS011;59082;50.658;4.608;2022-07-06T05:01:27;8.57;;;4.53;;
71296;SDS011;59082;50.658;4.608;2022-07-06T05:03:52;5.67;;;3.87;;
71296;SDS011;59082;50.658;4.608;2022-07-06T05:06:18;7.65;;;4.03;;
71296;SDS011;59082;50.658;4.608;2022-07-06T05:08:45;6.97;;;3.90;;
71296;SDS011;59082;50.658;4.608;2022-07-06T05:11:10;8.80;;;4.50;;
71296;SDS011;59082;50.658;4.608;2022-07-06T05:13:36;9.15;;;4.47;;
71296;SDS011;59082;50.658;4.608;2022-07-06T05:16:02;6.43;;;4.30;;
71296;SDS011;59082;50.658;4.608;2022-07-06T05:18:27;8.98;;;3.78;;
71296;SDS011;59082;50.658;4.608;2022-07-06T05:20:53;7.57;;;2.93;;
71296;SDS011;59082;50.658;4.608;2022-07-06T05:23:19;6.07;;;3.70;;
71296;SDS011;59082;50.658;4.608;2022-07-06T05:25:44;5.30;;;3.60;;
71296;SDS011;59082;50.658;4.608;2022-07-06T05:28:10;6.50;;;3.93;;
71296;SDS011;59082;50.658;4.608;2022-07-06T05:30:36;8.80;;;4.13;;
71296;SDS011;59082;50.658;4.608;2022-07-06T05:33:01;10.32;;;3.90;;
71296;SDS011;59082;50.658;4.608;2022-07-06T05:35:27;15.25;;;4.63;;
71296;SDS011;59082;50.658;4.608;2022-07-06T05:37:54;14.40;;;4.40;;
71296;SDS011;59082;50.658;4.608;2022-07-06T05:40:19;13.35;;;3.92;;
71296;SDS011;59082;50.658;4.608;2022-07-06T05:42:45;8.57;;;4.57;;
71296;SDS011;59082;50.658;4.608;2022-07-06T05:45:11;7.90;;;4.57;;
71296;SDS011;59082;50.658;4.608;2022-07-06T05:47:37;13.60;;;4.87;;
71296;SDS011;59082;50.658;4.608;2022-07-06T05:50:21;14.07;;;3.88;;
71296;SDS011;59082;50.658;4.608;2022-07-06T05:52:59;11.80;;;4.63;;
71296;SDS011;59082;50.658;4.608;2022-07-06T05:55:26;12.13;;;4.63;;
71296;SDS011;59082;50.658;4.608;2022-07-06T05:57:53;12.30;;;3.63;;
71296;SDS011;59082;50.658;4.608;2022-07-06T06:00:20;12.85;;;4.22;;
71296;SDS011;59082;50.658;4.608;2022-07-06T06:02:48;14.38;;;4.05;;
71296;SDS011;59082;50.658;4.608;2022-07-06T06:05:14;11.47;;;3.83;;
71296;SDS011;59082;50.658;4.608;2022-07-06T06:07:40;9.73;;;3.85;;
71296;SDS011;59082;50.658;4.608;2022-07-06T06:10:07;16.48;;;4.10;;
71296;SDS011;59082;50.658;4.608;2022-07-06T06:12:34;11.07;;;3.78;;
71296;SDS011;59082;50.658;4.608;2022-07-06T06:15:00;14.27;;;3.60;;
71296;SDS011;59082;50.658;4.608;2022-07-06T06:17:28;9.10;;;3.78;;
71296;SDS011;59082;50.658;4.608;2022-07-06T06:19:55;11.25;;;3.63;;
71296;SDS011;59082;50.658;4.608;2022-07-06T06:22:21;13.57;;;3.42;;
71296;SDS011;59082;50.658;4.608;2022-07-06T06:24:47;11.52;;;4.32;;
71296;SDS011;59082;50.658;4.608;2022-07-06T06:27:12;9.00;;;3.60;;
71296;SDS011;59082;50.658;4.608;2022-07-06T06:29:38;7.07;;;3.53;;
71296;SDS011;59082;50.658;4.608;2022-07-06T06:34:32;6.00;;;3.00;;
71296;SDS011;59082;50.658;4.608;2022-07-06T06:36:57;5.97;;;3.20;;
71296;SDS011;59082;50.658;4.608;2022-07-06T06:39:23;7.97;;;2.93;;
71296;SDS011;59082;50.658;4.608;2022-07-06T06:41:49;6.57;;;3.40;;
71296;SDS011;59082;50.658;4.608;2022-07-06T06:44:14;7.63;;;3.00;;
71296;SDS011;59082;50.658;4.608;2022-07-06T06:46:41;6.38;;;3.15;;
71296;SDS011;59082;50.658;4.608;2022-07-06T06:49:06;5.40;;;2.95;;
71296;SDS011;59082;50.658;4.608;2022-07-06T06:51:32;6.97;;;2.57;;
71296;SDS011;59082;50.658;4.608;2022-07-06T06:53:58;4.78;;;2.53;;
71296;SDS011;59082;50.658;4.608;2022-07-06T06:56:24;7.07;;;2.87;;
71296;SDS011;59082;50.658;4.608;2022-07-06T06:58:51;4.88;;;2.40;;
71296;SDS011;59082;50.658;4.608;2022-07-06T07:01:16;3.90;;;2.47;;
71296;SDS011;59082;50.658;4.608;2022-07-06T07:03:42;5.47;;;2.07;;
71296;SDS011;59082;50.658;4.608;2022-07-06T07:06:08;5.28;;;2.25;;
71296;SDS011;59082;50.658;4.608;2022-07-06T07:08:33;3.70;;;1.63;;
71296;SDS011;59082;50.658;4.608;2022-07-06T07:11:00;3.08;;;1.83;;
71296;SDS011;59082;50.658;4.608;2022-07-06T07:13:26;2.93;;;1.27;;
71296;SDS011;59082;50.658;4.608;2022-07-06T07:15:54;6.95;;;1.75;;
71296;SDS011;59082;50.658;4.608;2022-07-06T07:18:22;2.80;;;0.88;;
71296;SDS011;59082;50.658;4.608;2022-07-06T07:20:48;4.10;;;1.40;;
71296;SDS011;59082;50.658;4.608;2022-07-06T07:23:14;2.83;;;1.25;;
71296;SDS011;59082;50.658;4.608;2022-07-06T07:25:40;3.50;;;0.83;;
71296;SDS011;59082;50.658;4.608;2022-07-06T07:28:06;3.33;;;1.40;;
71296;SDS011;59082;50.658;4.608;2022-07-06T07:30:31;8.03;;;1.10;;
71296;SDS011;59082;50.658;4.608;2022-07-06T07:32:57;5.20;;;1.10;;
71296;SDS011;59082;50.658;4.608;2022-07-06T07:35:25;5.25;;;1.30;;
71296;SDS011;59082;50.658;4.608;2022-07-06T07:37:52;4.55;;;1.20;;
71296;SDS011;59082;50.658;4.608;2022-07-06T07:40:19;3.90;;;0.90;;
71296;SDS011;59082;50.658;4.608;2022-07-06T07:42:48;3.22;;;0.70;;
71296;SDS011;59082;50.658;4.608;2022-07-06T07:45:13;1.98;;;0.40;;
71296;SDS011;59082;50.658;4.608;2022-07-06T07:47:39;2.45;;;0.90;;
71296;SDS011;59082;50.658;4.608;2022-07-06T07:50:05;2.40;;;0.73;;
71296;SDS011;59082;50.658;4.608;2022-07-06T07:55:00;5.40;;;1.20;;
71296;SDS011;59082;50.658;4.608;2022-07-06T07:57:29;5.80;;;2.30;;
71296;SDS011;59082;50.658;4.608;2022-07-06T07:59:59;3.50;;;1.97;;
71296;SDS011;59082;50.658;4.608;2022-07-06T08:02:25;7.32;;;1.67;;
71296;SDS011;59082;50.658;4.608;2022-07-06T08:04:50;3.47;;;2.03;;
71296;SDS011;59082;50.658;4.608;2022-07-06T08:07:16;3.77;;;1.93;;
71296;SDS011;59082;50.658;4.608;2022-07-06T08:09:43;2.00;;;1.20;;
71296;SDS011;59082;50.658;4.608;2022-07-06T08:12:09;1.90;;;1.05;;
71296;SDS011;59082;50.658;4.608;2022-07-06T08:14:34;3.30;;;1.33;;
71296;SDS011;59082;50.658;4.608;2022-07-06T08:17:02;3.50;;;1.08;;
71296;SDS011;59082;50.658;4.608;2022-07-06T08:19:29;3.57;;;1.27;;
71296;SDS011;59082;50.658;4.608;2022-07-06T08:21:57;4.30;;;1.25;;
71296;SDS011;59082;50.658;4.608;2022-07-06T08:24:22;2.75;;;1.52;;
71296;SDS011;59082;50.658;4.608;2022-07-06T08:26:51;4.33;;;1.40;;
71296;SDS011;59082;50.658;4.608;2022-07-06T08:29:17;4.40;;;1.40;;
71296;SDS011;59082;50.658;4.608;2022-07-06T08:31:42;3.83;;;1.53;;
71296;SDS011;59082;50.658;4.608;2022-07-06T08:34:08;6.23;;;2.00;;
71296;SDS011;59082;50.658;4.608;2022-07-06T08:36:37;5.32;;;1.65;;
71296;SDS011;59082;50.658;4.608;2022-07-06T08:39:03;3.72;;;1.83;;
71296;SDS011;59082;50.658;4.608;2022-07-06T08:41:29;5.73;;;1.47;;
71296;SDS011;59082;50.658;4.608;2022-07-06T08:43:55;4.25;;;1.92;;
71296;SDS011;59082;50.658;4.608;2022-07-06T08:46:22;3.17;;;1.50;;
71296;SDS011;59082;50.658;4.608;2022-07-06T08:48:47;4.15;;;1.95;;
71296;SDS011;59082;50.658;4.608;2022-07-06T08:51:14;4.07;;;1.55;;
71296;SDS011;59082;50.658;4.608;2022-07-06T08:53:44;3.90;;;1.70;;
71296;SDS011;59082;50.658;4.608;2022-07-06T08:56:14;4.83;;;1.87;;
71296;SDS011;59082;50.658;4.608;2022-07-06T08:58:42;4.38;;;2.05;;
71296;SDS011;59082;50.658;4.608;2022-07-06T09:01:09;4.78;;;2.15;;
71296;SDS011;59082;50.658;4.608;2022-07-06T09:03:35;3.13;;;1.70;;
71296;SDS011;59082;50.658;4.608;2022-07-06T09:06:02;3.60;;;1.70;;
71296;SDS011;59082;50.658;4.608;2022-07-06T09:08:28;4.63;;;1.77;;
71296;SDS011;59082;50.658;4.608;2022-07-06T09:10:56;5.85;;;2.38;;
71296;SDS011;59082;50.658;4.608;2022-07-06T09:13:24;5.65;;;2.55;;
71296;SDS011;59082;50.658;4.608;2022-07-06T09:15:50;4.32;;;2.08;;
71296;SDS011;59082;50.658;4.608;2022-07-06T09:18:16;4.83;;;2.10;;
71296;SDS011;59082;50.658;4.608;2022-07-06T09:20:41;3.57;;;1.60;;
71296;SDS011;59082;50.658;4.608;2022-07-06T09:23:08;5.57;;;1.65;;
71296;SDS011;59082;50.658;4.608;2022-07-06T09:25:35;6.32;;;2.20;;
71296;SDS011;59082;50.658;4.608;2022-07-06T09:28:02;3.85;;;2.15;;
71296;SDS011;59082;50.658;4.608;2022-07-06T09:30:30;5.60;;;2.30;;
71296;SDS011;59082;50.658;4.608;2022-07-06T09:33:01;8.07;;;2.63;;
71296;SDS011;59082;50.658;4.608;2022-07-06T09:35:31;5.57;;;1.77;;
71296;SDS011;59082;50.658;4.608;2022-07-06T09:38:08;4.60;;;2.13;;
71296;SDS011;59082;50.658;4.608;2022-07-06T09:40:36;4.32;;;2.03;;
71296;SDS011;59082;50.658;4.608;2022-07-06T09:43:28;5.85;;;1.83;;
71296;SDS011;59082;50.658;4.608;2022-07-06T09:45:54;5.75;;;1.75;;
71296;SDS011;59082;50.658;4.608;2022-07-06T09:48:23;2.57;;;1.47;;
71296;SDS011;59082;50.658;4.608;2022-07-06T09:50:51;2.92;;;1.40;;
71296;SDS011;59082;50.658;4.608;2022-07-06T09:53:19;3.65;;;1.60;;
71296;SDS011;59082;50.658;4.608;2022-07-06T09:55:48;3.13;;;1.50;;
71296;SDS011;59082;50.658;4.608;2022-07-06T09:58:17;4.25;;;1.75;;
71296;SDS011;59082;50.658;4.608;2022-07-06T10:00:46;4.47;;;2.00;;
71296;SDS011;59082;50.658;4.608;2022-07-06T10:03:13;4.60;;;1.77;;
71296;SDS011;59082;50.658;4.608;2022-07-06T10:08:13;5.60;;;2.42;;
71296;SDS011;59082;50.658;4.608;2022-07-06T10:10:43;5.70;;;2.70;;
71296;SDS011;59082;50.658;4.608;2022-07-06T10:13:10;7.23;;;2.10;;
71296;SDS011;59082;50.658;4.608;2022-07-06T10:15:39;4.40;;;2.10;;
71296;SDS011;59082;50.658;4.608;2022-07-06T10:18:08;2.10;;;1.90;;
71296;SDS011;59082;50.658;4.608;2022-07-06T10:20:36;4.78;;;2.88;;
71296;SDS011;59082;50.658;4.608;2022-07-06T10:23:04;5.43;;;3.17;;
71296;SDS011;59082;50.658;4.608;2022-07-06T10:25:32;5.93;;;2.43;;
71296;SDS011;59082;50.658;4.608;2022-07-06T10:27:59;5.85;;;2.50;;
71296;SDS011;59082;50.658;4.608;2022-07-06T10:30:26;5.32;;;2.05;;
71296;SDS011;59082;50.658;4.608;2022-07-06T10:32:53;6.05;;;2.28;;
71296;SDS011;59082;50.658;4.608;2022-07-06T10:38:03;4.67;;;2.77;;
71296;SDS011;59082;50.658;4.608;2022-07-06T10:40:35;4.47;;;2.25;;
71296;SDS011;59082;50.658;4.608;2022-07-06T10:43:23;7.60;;;2.22;;
71296;SDS011;59082;50.658;4.608;2022-07-06T10:45:57;4.55;;;2.20;;
71296;SDS011;59082;50.658;4.608;2022-07-06T10:48:22;5.00;;;2.30;;
71296;SDS011;59082;50.658;4.608;2022-07-06T10:50:49;4.87;;;2.70;;
71296;SDS011;59082;50.658;4.608;2022-07-06T10:53:25;4.45;;;2.00;;
71296;SDS011;59082;50.658;4.608;2022-07-06T10:55:53;4.22;;;2.08;;
71296;SDS011;59082;50.658;4.608;2022-07-06T10:58:41;5.97;;;1.80;;
71296;SDS011;59082;50.658;4.608;2022-07-06T11:01:18;6.18;;;1.95;;
71296;SDS011;59082;50.658;4.608;2022-07-06T11:06:39;6.82;;;2.20;;
71296;SDS011;59082;50.658;4.608;2022-07-06T11:14:18;5.28;;;2.17;;
71296;SDS011;59082;50.658;4.608;2022-07-06T11:19:16;3.92;;;1.83;;
71296;SDS011;59082;50.658;4.608;2022-07-06T11:21:47;3.50;;;1.50;;
71296;SDS011;59082;50.658;4.608;2022-07-06T11:24:21;4.23;;;1.57;;
71296;SDS011;59082;50.658;4.608;2022-07-06T11:26:49;4.55;;;1.75;;
71296;SDS011;59082;50.658;4.608;2022-07-06T11:29:16;3.42;;;1.90;;
71296;SDS011;59082;50.658;4.608;2022-07-06T11:31:44;6.03;;;2.17;;
71296;SDS011;59082;50.658;4.608;2022-07-06T11:34:12;5.28;;;2.28;;
71296;SDS011;59082;50.658;4.608;2022-07-06T11:39:14;4.53;;;1.83;;
71296;SDS011;59082;50.658;4.608;2022-07-06T11:41:42;4.18;;;2.60;;
71296;SDS011;59082;50.658;4.608;2022-07-06T11:44:07;4.88;;;1.92;;
71296;SDS011;59082;50.658;4.608;2022-07-06T11:46:33;3.77;;;1.80;;
71296;SDS011;59082;50.658;4.608;2022-07-06T11:49:02;5.07;;;1.70;;
71296;SDS011;59082;50.658;4.608;2022-07-06T11:51:34;3.45;;;1.50;;
71296;SDS011;59082;50.658;4.608;2022-07-06T11:54:16;4.60;;;1.33;;
71296;SDS011;59082;50.658;4.608;2022-07-06T11:56:56;3.57;;;0.60;;
71296;SDS011;59082;50.658;4.608;2022-07-06T11:59:27;1.92;;;1.15;;
71296;SDS011;59082;50.658;4.608;2022-07-06T12:01:57;3.55;;;1.65;;
71296;SDS011;59082;50.658;4.608;2022-07-06T12:04:24;3.13;;;1.98;;
71296;SDS011;59082;50.658;4.608;2022-07-06T12:06:52;4.47;;;1.50;;
71296;SDS011;59082;50.658;4.608;2022-07-06T12:09:20;4.37;;;1.73;;
71296;SDS011;59082;50.658;4.608;2022-07-06T12:11:52;3.92;;;1.95;;
71296;SDS011;59082;50.658;4.608;2022-07-06T12:14:19;2.15;;;1.75;;
71296;SDS011;59082;50.658;4.608;2022-07-06T12:16:48;3.30;;;1.70;;
71296;SDS011;59082;50.658;4.608;2022-07-06T12:19:16;4.03;;;2.00;;
71296;SDS011;59082;50.658;4.608;2022-07-06T12:21:48;3.87;;;2.37;;
71296;SDS011;59082;50.658;4.608;2022-07-06T12:24:25;3.75;;;1.88;;
71296;SDS011;59082;50.658;4.608;2022-07-06T12:29:41;5.70;;;2.28;;
71296;SDS011;59082;50.658;4.608;2022-07-06T12:32:16;6.67;;;2.37;;
71296;SDS011;59082;50.658;4.608;2022-07-06T12:34:46;4.30;;;1.27;;
71296;SDS011;59082;50.658;4.608;2022-07-06T12:37:18;2.97;;;0.70;;
71296;SDS011;59082;50.658;4.608;2022-07-06T12:39:44;4.80;;;1.20;;
71296;SDS011;59082;50.658;4.608;2022-07-06T12:42:18;4.55;;;1.23;;
71296;SDS011;59082;50.658;4.608;2022-07-06T12:47:20;3.67;;;1.60;;
71296;SDS011;59082;50.658;4.608;2022-07-06T12:50:04;3.47;;;2.90;;
71296;SDS011;59082;50.658;4.608;2022-07-06T12:52:31;3.92;;;2.45;;
71296;SDS011;59082;50.658;4.608;2022-07-06T12:54:59;4.20;;;3.20;;
71296;SDS011;59082;50.658;4.608;2022-07-06T12:57:35;4.22;;;2.78;;
71296;SDS011;59082;50.658;4.608;2022-07-06T13:00:08;2.83;;;2.53;;
71296;SDS011;59082;50.658;4.608;2022-07-06T13:02:34;3.53;;;0.68;;
71296;SDS011;59082;50.658;4.608;2022-07-06T13:07:35;4.10;;;1.90;;
71296;SDS011;59082;50.658;4.608;2022-07-06T13:10:08;4.95;;;2.13;;
71296;SDS011;59082;50.658;4.608;2022-07-06T13:12:36;4.43;;;2.00;;
71296;SDS011;59082;50.658;4.608;2022-07-06T13:15:04;6.55;;;1.77;;
71296;SDS011;59082;50.658;4.608;2022-07-06T13:17:30;3.95;;;3.08;;
71296;SDS011;59082;50.658;4.608;2022-07-06T13:19:56;3.73;;;2.40;;
71296;SDS011;59082;50.658;4.608;2022-07-06T13:22:22;3.55;;;2.88;;
71296;SDS011;59082;50.658;4.608;2022-07-06T13:24:47;5.67;;;2.00;;
71296;SDS011;59082;50.658;4.608;2022-07-06T13:27:14;3.57;;;2.10;;
71296;SDS011;59082;50.658;4.608;2022-07-06T13:29:40;5.47;;;2.80;;
71296;SDS011;59082;50.658;4.608;2022-07-06T13:32:05;1.65;;;0.63;;
71296;SDS011;59082;50.658;4.608;2022-07-06T13:34:32;2.93;;;0.80;;
71296;SDS011;59082;50.658;4.608;2022-07-06T13:36:59;4.43;;;1.15;;
71296;SDS011;59082;50.658;4.608;2022-07-06T13:39:25;4.47;;;1.52;;
71296;SDS011;59082;50.658;4.608;2022-07-06T13:41:52;3.38;;;0.80;;
71296;SDS011;59082;50.658;4.608;2022-07-06T13:44:19;3.88;;;0.82;;
71296;SDS011;59082;50.658;4.608;2022-07-06T13:46:47;4.33;;;0.80;;
71296;SDS011;59082;50.658;4.608;2022-07-06T13:49:19;3.15;;;0.95;;
71296;SDS011;59082;50.658;4.608;2022-07-06T13:51:44;5.60;;;1.30;;
71296;SDS011;59082;50.658;4.608;2022-07-06T13:54:10;6.83;;;2.43;;
71296;SDS011;59082;50.658;4.608;2022-07-06T13:56:37;5.87;;;3.67;;
71296;SDS011;59082;50.658;4.608;2022-07-06T13:59:04;3.42;;;3.03;;
71296;SDS011;59082;50.658;4.608;2022-07-06T14:01:31;2.72;;;1.30;;
71296;SDS011;59082;50.658;4.608;2022-07-06T14:04:01;4.25;;;2.95;;
71296;SDS011;59082;50.658;4.608;2022-07-06T14:06:28;5.55;;;2.15;;
71296;SDS011;59082;50.658;4.608;2022-07-06T14:08:56;3.07;;;2.50;;
71296;SDS011;59082;50.658;4.608;2022-07-06T14:11:22;4.65;;;1.05;;
71296;SDS011;59082;50.658;4.608;2022-07-06T14:13:48;3.38;;;0.82;;
71296;SDS011;59082;50.658;4.608;2022-07-06T14:16:13;4.80;;;1.00;;
71296;SDS011;59082;50.658;4.608;2022-07-06T14:18:41;2.50;;;0.93;;
71296;SDS011;59082;50.658;4.608;2022-07-06T14:21:08;3.63;;;1.20;;
71296;SDS011;59082;50.658;4.608;2022-07-06T14:23:34;3.13;;;1.00;;
71296;SDS011;59082;50.658;4.608;2022-07-06T14:26:00;2.50;;;1.00;;
71296;SDS011;59082;50.658;4.608;2022-07-06T14:28:25;4.43;;;1.23;;
71296;SDS011;59082;50.658;4.608;2022-07-06T14:30:51;4.20;;;1.10;;
71296;SDS011;59082;50.658;4.608;2022-07-06T14:33:17;4.47;;;1.10;;
71296;SDS011;59082;50.658;4.608;2022-07-06T14:35:45;3.20;;;2.13;;
71296;SDS011;59082;50.658;4.608;2022-07-06T14:38:15;3.58;;;1.15;;
71296;SDS011;59082;50.658;4.608;2022-07-06T14:40:41;4.43;;;1.20;;
71296;SDS011;59082;50.658;4.608;2022-07-06T14:43:08;4.10;;;3.40;;
71296;SDS011;59082;50.658;4.608;2022-07-06T14:45:33;4.07;;;3.22;;
71296;SDS011;59082;50.658;4.608;2022-07-06T14:47:59;1.70;;;0.60;;
71296;SDS011;59082;50.658;4.608;2022-07-06T14:50:25;3.40;;;1.80;;
71296;SDS011;59082;50.658;4.608;2022-07-06T14:52:52;4.33;;;3.90;;
71296;SDS011;59082;50.658;4.608;2022-07-06T14:55:18;4.95;;;4.55;;
71296;SDS011;59082;50.658;4.608;2022-07-06T14:57:44;2.65;;;2.03;;
71296;SDS011;59082;50.658;4.608;2022-07-06T15:00:10;4.10;;;0.80;;
71296;SDS011;59082;50.658;4.608;2022-07-06T15:02:37;4.13;;;2.60;;
71296;SDS011;59082;50.658;4.608;2022-07-06T15:05:03;4.10;;;1.02;;
71296;SDS011;59082;50.658;4.608;2022-07-06T15:07:29;4.07;;;3.15;;
71296;SDS011;59082;50.658;4.608;2022-07-06T15:09:55;4.83;;;1.97;;
71296;SDS011;59082;50.658;4.608;2022-07-06T15:12:20;3.97;;;2.88;;
71296;SDS011;59082;50.658;4.608;2022-07-06T15:14:46;2.77;;;2.23;;
71296;SDS011;59082;50.658;4.608;2022-07-06T15:17:12;4.45;;;2.22;;
71296;SDS011;59082;50.658;4.608;2022-07-06T15:19:37;4.57;;;2.80;;